Time;durP1;ratioP1;P1;durP2;ratioP2;P2;SDS_P1;SDS_P2;PMS_P1;PMS_P2;Temp;Humidity;BMP_temperature;BMP_pressure;BME280_temperature;BME280_humidity;BME280_pressure;Samples;Min_cycle;Max_cycle;Signal;HPM_P1;HPM_P2
2024/01/04 00:01:37;;;;;;;;;;;;;;;15.47;46.45;99923.84;5069655;28;896;-60
2024/01/04 00:04:03;;;;;;;;;;;;;;;15.34;46.06;99926.66;5073596;28;1488;-59
2024/01/04 00:06:29;;;;;;;;;;;;;;;17.04;46.10;99929.41;5066948;28;1984;-61
2024/01/04 00:08:54;;;;;;;;;;;;;;;15.93;47.09;99928.97;5073571;28;1055;-61
2024/01/04 00:11:20;;;;;;;;;;;;;;;15.59;46.40;99943.22;5057406;28;1229;-60
2024/01/04 00:13:46;;;;;;;;;;;;;;;16.82;46.42;99940.09;5059290;28;934;-59
2024/01/04 00:16:11;;;;;;;;;;;;;;;16.07;47.02;99934.94;5067176;28;1075;-59
2024/01/04 00:18:37;;;;;;;;;;;;;;;16.71;46.61;99940.19;5052150;28;1215;-59
2024/01/04 00:21:03;;;;;;;;;;;;;;;17.35;44.75;99938.19;5076367;28;913;-60
2024/01/04 00:23:31;;;;;;;;;;;;;;;16.11;46.97;99941.69;5076222;28;1050;-61
2024/01/04 00:25:57;;;;;;;;;;;;;;;15.69;46.88;99940.63;5065045;28;1905;-61
2024/01/04 00:28:22;;;;;;;;;;;;;;;16.70;46.23;99934.03;5063374;28;1025;-62
2024/01/04 00:30:48;;;;;;;;;;;;;;;15.82;46.97;99927.19;5076739;28;1142;-58
2024/01/04 00:33:13;;;;;;;;;;;;;;;15.58;46.61;99930.91;5062936;28;1189;-59
2024/01/04 00:35:39;;;;;;;;;;;;;;;17.25;45.65;99924.88;5076413;28;1137;-57
2024/01/04 00:38:04;;;;;;;;;;;;;;;16.01;47.25;99926.56;5073835;28;955;-58
2024/01/04 00:40:30;;;;;;;;;;;;;;;15.61;47.03;99930.69;5065692;28;1103;-61
2024/01/04 00:42:57;;;;;;;;;;;;;;;15.38;46.31;99933.38;5062810;28;1218;-60
2024/01/04 00:45:23;;;;;;;;;;;;;;;17.16;46.05;99939.00;5067132;28;1983;-57
2024/01/04 00:47:48;;;;;;;;;;;;;;;16.24;46.80;99933.53;5070010;28;1133;-60
2024/01/04 00:50:14;;;;;;;;;;;;;;;15.80;46.66;99939.75;5075104;28;837;-60
2024/01/04 00:52:40;;;;;;;;;;;;;;;15.53;45.88;99944.53;5055411;28;1084;-59
2024/01/04 00:55:05;;;;;;;;;;;;;;;16.40;47.13;99941.03;5056696;28;1068;-59
2024/01/04 00:57:31;;;;;;;;;;;;;;;16.81;46.06;99950.88;5071628;28;1064;-60
2024/01/04 00:59:57;;;;;;;;;;;;;;;15.82;47.28;99952.88;5067897;28;1142;-60
2024/01/04 01:02:22;;;;;;;;;;;;;;;15.71;47.62;99946.66;5062291;28;1000;-59
2024/01/04 01:04:48;;;;;;;;;;;;;;;16.60;46.25;99943.81;5075823;28;1909;-61
2024/01/04 01:07:13;;;;;;;;;;;;;;;15.68;47.43;99944.28;5054899;28;1198;-60
2024/01/04 01:09:39;;;;;;;;;;;;;;;15.40;46.59;99949.16;5064140;28;1160;-60
2024/01/04 01:12:04;;;;;;;;;;;;;;;16.93;45.94;99941.84;5076185;28;1048;-59
2024/01/04 01:14:30;;;;;;;;;;;;;;;15.85;46.94;99936.72;5063994;28;920;-59
2024/01/04 01:16:56;;;;;;;;;;;;;;;15.54;46.30;99935.63;5058382;28;1102;-58
2024/01/04 01:19:22;;;;;;;;;;;;;;;15.43;46.17;99933.84;5072220;28;1156;-59
2024/01/04 01:21:47;;;;;;;;;;;;;;;17.03;45.53;99941.88;5062014;28;1144;-59
2024/01/04 01:24:13;;;;;;;;;;;;;;;15.80;47.13;99931.78;5058510;28;1087;-59
2024/01/04 01:26:39;;;;;;;;;;;;;;;15.48;46.70;99930.00;5078619;28;1910;-60
2024/01/04 01:29:05;;;;;;;;;;;;;;;15.96;47.83;99936.69;5061567;28;1083;-57
2024/01/04 01:31:30;;;;;;;;;;;;;;;16.52;46.24;99937.31;5070059;28;1068;-60
2024/01/04 01:33:56;;;;;;;;;;;;;;;15.74;46.88;99949.06;5079724;28;1091;-61
2024/01/04 01:36:21;;;;;;;;;;;;;;;15.46;47.05;99947.81;5061280;28;1099;-61
2024/01/04 01:38:47;;;;;;;;;;;;;;;16.87;45.83;99945.00;5053768;28;1219;-61
2024/01/04 01:41:12;;;;;;;;;;;;;;;15.81;47.15;99951.19;5061485;28;1135;-61
2024/01/04 01:43:38;;;;;;;;;;;;;;;16.86;46.54;99946.84;5061814;28;1140;-61
2024/01/04 01:46:04;;;;;;;;;;;;;;;16.96;45.68;99951.34;5065716;28;1897;-59
2024/01/04 01:48:29;;;;;;;;;;;;;;;15.94;46.51;99954.53;5072360;28;1059;-61
2024/01/04 01:50:55;;;;;;;;;;;;;;;16.38;47.31;99949.13;5066546;28;1120;-61
2024/01/04 01:53:20;;;;;;;;;;;;;;;16.74;45.83;99951.41;5053893;28;1223;-59
2024/01/04 01:55:46;;;;;;;;;;;;;;;15.90;46.60;99945.13;5056219;28;1091;-62
2024/01/04 01:58:12;;;;;;;;;;;;;;;16.49;47.17;99944.72;5079733;28;1098;-60
2024/01/04 02:00:38;;;;;;;;;;;;;;;16.62;46.17;99939.19;5047927;28;1202;-61
2024/01/04 02:03:05;;;;;;;;;;;;;;;15.86;46.71;99941.06;5053207;28;1178;-61
2024/01/04 02:05:31;;;;;;;;;;;;;;;15.62;46.53;99939.44;5055567;28;1906;-60
2024/01/04 02:07:57;;;;;;;;;;;;;;;16.44;46.90;99941.59;5078353;28;1008;-59
2024/01/04 02:10:22;;;;;;;;;;;;;;;16.76;45.76;99933.53;5079256;28;1336;-59
2024/01/04 02:12:48;;;;;;;;;;;;;;;15.80;47.19;99937.09;5061743;28;1329;-60
2024/01/04 02:15:14;;;;;;;;;;;;;;;15.62;46.33;99934.16;5045638;28;2072;-59
2024/01/04 02:17:40;;;;;;;;;;;;;;;15.56;47.06;99935.50;5059620;28;1107;-60
2024/01/04 02:20:05;;;;;;;;;;;;;;;17.42;45.30;99927.00;5050284;28;1210;-57
2024/01/04 02:22:31;;;;;;;;;;;;;;;16.12;46.81;99930.94;5060956;28;1181;-55
2024/01/04 02:24:57;;;;;;;;;;;;;;;15.52;46.77;99928.75;5072916;28;1890;-54
2024/01/04 02:27:23;;;;;;;;;;;;;;;16.89;46.21;99922.66;5041213;28;1269;-56
2024/01/04 02:29:48;;;;;;;;;;;;;;;16.81;45.84;99926.97;5072692;28;1167;-57
2024/01/04 02:32:14;;;;;;;;;;;;;;;15.94;46.67;99924.50;5078741;28;1245;-58
2024/01/04 02:34:39;;;;;;;;;;;;;;;15.89;47.93;99925.72;5065569;28;1163;-57
2024/01/04 02:37:06;;;;;;;;;;;;;;;17.04;45.35;99929.41;5066312;28;1199;-54
2024/01/04 02:39:32;;;;;;;;;;;;;;;16.07;46.51;99927.84;5046102;28;1269;-55
2024/01/04 02:41:57;;;;;;;;;;;;;;;15.73;46.44;99936.75;5058588;28;1131;-57
2024/01/04 02:44:23;;;;;;;;;;;;;;;15.58;45.99;99938.03;5071918;28;1218;-58
2024/01/04 02:46:48;;;;;;;;;;;;;;;16.96;45.70;99930.94;5066380;28;1910;-53
2024/01/04 02:49:14;;;;;;;;;;;;;;;15.84;46.81;99927.91;5064845;28;1056;-54
2024/01/04 02:51:40;;;;;;;;;;;;;;;15.59;46.40;99921.16;5048022;28;1339;-54
2024/01/04 02:54:07;;;;;;;;;;;;;;;17.30;45.35;99929.78;5059418;28;1328;-55
2024/01/04 02:56:33;;;;;;;;;;;;;;;15.97;46.83;99926.88;5078147;28;1068;-55
2024/01/04 02:58:59;;;;;;;;;;;;;;;15.52;46.67;99919.00;5064960;28;1082;-53
2024/01/04 03:01:24;;;;;;;;;;;;;;;16.93;46.27;99920.59;5073685;28;1074;-55
2024/01/04 03:03:55;;;;;;;;;;;;;;;16.21;46.79;99924.03;5076077;28;1133;-54
2024/01/04 03:06:24;;;;;;;;;;;;;;;15.68;46.41;99933.66;5066843;28;1906;-53
2024/01/04 03:08:49;;;;;;;;;;;;;;;15.83;47.36;99933.34;5061766;28;1106;-54
2024/01/04 03:11:15;;;;;;;;;;;;;;;17.45;44.59;99940.84;5066932;28;1032;-57
2024/01/04 03:13:41;;;;;;;;;;;;;;;16.03;47.04;99942.34;5067077;28;1210;-58
2024/01/04 03:16:06;;;;;;;;;;;;;;;15.71;46.24;99948.47;5077206;28;1328;-57
2024/01/04 03:18:32;;;;;;;;;;;;;;;15.52;45.87;99947.31;5077778;28;1340;-58
2024/01/04 03:20:57;;;;;;;;;;;;;;;16.71;46.59;99948.16;5077234;28;1321;-55
2024/01/04 03:23:23;;;;;;;;;;;;;;;16.08;46.73;99944.59;5077678;28;1114;-55
2024/01/04 03:25:48;;;;;;;;;;;;;;;15.59;46.53;99948.50;5071530;28;1897;-56
2024/01/04 03:28:14;;;;;;;;;;;;;;;15.34;46.14;99950.50;5076329;28;1183;-58
2024/01/04 03:30:40;;;;;;;;;;;;;;;15.59;46.96;99956.47;5077140;28;1134;-56
2024/01/04 03:33:05;;;;;;;;;;;;;;;16.58;46.14;99951.06;5077131;28;1258;-57
2024/01/04 03:35:31;;;;;;;;;;;;;;;15.63;47.04;99944.63;5077405;28;1111;-57
2024/01/04 03:37:56;;;;;;;;;;;;;;;15.37;46.17;99960.00;5075185;28;1540;-57
2024/01/04 03:40:22;;;;;;;;;;;;;;;15.16;45.69;99958.13;5075186;28;1249;-55
2024/01/04 03:42:48;;;;;;;;;;;;;;;17.01;45.77;99949.13;5057795;28;1209;-55
2024/01/04 03:45:13;;;;;;;;;;;;;;;16.35;46.47;99951.22;5057239;28;1897;-54
2024/01/04 03:47:39;;;;;;;;;;;;;;;15.61;47.10;99956.34;5062993;28;1139;-55
2024/01/04 03:50:06;;;;;;;;;;;;;;;15.43;46.25;99956.88;5070219;28;1175;-56
2024/01/04 03:52:31;;;;;;;;;;;;;;;16.65;47.00;99954.84;5057374;28;1036;-57
2024/01/04 03:54:57;;;;;;;;;;;;;;;16.19;46.42;99947.19;5057122;28;2386;-58
2024/01/04 03:57:22;;;;;;;;;;;;;;;15.60;46.80;99952.00;5066207;28;1900;-57
2024/01/04 03:59:48;;;;;;;;;;;;;;;15.29;46.67;99955.31;5063483;28;1825;-59
2024/01/04 04:02:14;;;;;;;;;;;;;;;17.12;45.87;99961.50;5067135;28;2134;-58
2024/01/04 04:04:39;;;;;;;;;;;;;;;15.99;46.71;99952.38;5067935;28;2035;-58
2024/01/04 04:07:05;;;;;;;;;;;;;;;15.55;46.51;99955.00;5076385;28;2302;-58
2024/01/04 04:09:30;;;;;;;;;;;;;;;17.05;45.85;99955.03;5073679;28;1809;-59
2024/01/04 04:11:56;;;;;;;;;;;;;;;16.11;46.54;99961.13;5076402;28;1179;-54
2024/01/04 04:14:21;;;;;;;;;;;;;;;15.64;46.57;99956.94;5068731;28;1183;-59
2024/01/04 04:16:47;;;;;;;;;;;;;;;16.11;47.48;99957.59;5071123;28;1281;-54
2024/01/04 04:19:13;;;;;;;;;;;;;;;17.11;45.10;99951.84;5065280;28;1128;-52
2024/01/04 04:21:38;;;;;;;;;;;;;;;15.87;46.98;99956.84;5072070;28;1159;-54
2024/01/04 04:24:04;;;;;;;;;;;;;;;15.45;46.89;99959.41;5066833;28;1024;-54
2024/01/04 04:26:29;;;;;;;;;;;;;;;16.49;47.09;99957.97;5066067;28;1914;-52
2024/01/04 04:28:55;;;;;;;;;;;;;;;16.46;46.15;99963.56;5075713;28;1042;-54
2024/01/04 04:31:21;;;;;;;;;;;;;;;15.68;46.96;99965.47;5065486;28;1171;-55
2024/01/04 04:33:47;;;;;;;;;;;;;;;16.25;47.31;99970.56;5067480;28;1179;-55
2024/01/04 04:36:13;;;;;;;;;;;;;;;16.12;46.65;99975.19;5071136;28;1087;-56
2024/01/04 04:38:38;;;;;;;;;;;;;;;15.64;46.43;99987.91;5074466;28;2273;-56
2024/01/04 04:41:05;;;;;;;;;;;;;;;15.61;47.17;99991.66;5075877;28;1129;-57
2024/01/04 04:43:31;;;;;;;;;;;;;;;17.16;44.94;99988.66;5075041;28;1179;-56
2024/01/04 04:45:56;;;;;;;;;;;;;;;15.89;46.85;100002.66;5070669;28;1979;-59
2024/01/04 04:48:22;;;;;;;;;;;;;;;15.45;46.39;99999.97;5074771;28;1053;-60
2024/01/04 04:50:48;;;;;;;;;;;;;;;16.59;46.35;99992.56;5056720;28;1294;-60
2024/01/04 04:53:14;;;;;;;;;;;;;;;17.15;44.94;99994.94;5070124;28;1268;-55
2024/01/04 04:55:39;;;;;;;;;;;;;;;15.93;46.81;100003.25;5066940;28;1252;-52
2024/01/04 04:58:05;;;;;;;;;;;;;;;15.64;46.07;99994.06;5075853;28;1105;-51
2024/01/04 05:00:31;;;;;;;;;;;;;;;15.39;45.39;99993.38;5074426;28;1296;-52
2024/01/04 05:02:56;;;;;;;;;;;;;;;15.28;45.61;99998.69;5074806;28;964;-53
2024/01/04 05:05:22;;;;;;;;;;;;;;;16.11;46.98;100006.22;5060884;28;1982;-55
2024/01/04 05:07:47;;;;;;;;;;;;;;;16.88;45.34;99995.34;5071869;28;2334;-48
2024/01/04 05:10:13;;;;;;;;;;;;;;;15.82;46.52;99997.97;5071032;28;1119;-52
2024/01/04 05:12:38;;;;;;;;;;;;;;;15.74;47.17;100006.53;5065223;28;1130;-46
2024/01/04 05:15:04;;;;;;;;;;;;;;;17.46;44.52;100003.72;5069774;28;1114;-50
2024/01/04 05:17:30;;;;;;;;;;;;;;;15.98;46.55;100006.38;5075586;28;1098;-46
2024/01/04 05:19:55;;;;;;;;;;;;;;;15.55;46.84;100010.69;5061614;28;1104;-47
2024/01/04 05:22:21;;;;;;;;;;;;;;;16.19;46.83;100015.34;5075715;28;1111;-51
2024/01/04 05:24:46;;;;;;;;;;;;;;;17.04;44.69;100015.28;5071628;28;1983;-51
2024/01/04 05:27:12;;;;;;;;;;;;;;;16.50;45.83;100023.38;5064966;28;1107;-49
2024/01/04 05:29:37;;;;;;;;;;;;;;;16.19;46.32;100024.16;5061562;28;1151;-51
2024/01/04 05:32:03;;;;;;;;;;;;;;;15.99;46.86;100026.63;5071489;28;1583;-53
2024/01/04 05:34:32;;;;;;;;;;;;;;;15.81;47.17;100023.66;5056986;28;1107;-50
2024/01/04 05:36:58;;;;;;;;;;;;;;;15.60;47.67;100013.81;5055828;28;1047;-50
2024/01/04 05:39:24;;;;;;;;;;;;;;;15.46;47.84;100009.63;5058120;28;2753;-52
2024/01/04 05:41:49;;;;;;;;;;;;;;;15.39;47.58;100011.94;5068471;28;1115;-51
2024/01/04 05:44:15;;;;;;;;;;;;;;;15.62;47.64;100014.53;5068835;28;1187;-51
2024/01/04 05:46:41;;;;;;;;;;;;;;;17.08;44.27;100005.25;5075246;28;1925;-50
2024/01/04 05:49:06;;;;;;;;;;;;;;;16.71;44.86;100006.59;5075485;28;1103;-53
2024/01/04 05:51:32;;;;;;;;;;;;;;;16.01;46.17;99999.97;5058828;28;1128;-51
2024/01/04 05:53:57;;;;;;;;;;;;;;;15.79;46.92;100007.88;5055097;28;1024;-53
2024/01/04 05:56:23;;;;;;;;;;;;;;;15.43;47.71;100002.75;5062021;28;1089;-52
2024/01/04 05:58:48;;;;;;;;;;;;;;;15.74;47.05;100003.91;5075117;28;979;-53
2024/01/04 06:01:14;;;;;;;;;;;;;;;17.18;43.93;100000.00;5055079;28;1060;-52
2024/01/04 06:03:40;;;;;;;;;;;;;;;16.78;44.33;100005.13;5070691;28;1327;-51
2024/01/04 06:06:06;;;;;;;;;;;;;;;16.10;46.26;100001.88;5075789;28;1909;-51
2024/01/04 06:08:32;;;;;;;;;;;;;;;15.78;46.85;100005.34;5065842;28;2587;-53
2024/01/04 06:10:57;;;;;;;;;;;;;;;15.59;47.43;100011.28;5065411;28;1028;-53
2024/01/04 06:13:26;;;;;;;;;;;;;;;15.37;47.81;100015.66;5078806;28;1290;-54
2024/01/04 06:15:54;;;;;;;;;;;;;;;16.81;44.67;100023.44;5066382;28;991;-50
2024/01/04 06:18:20;;;;;;;;;;;;;;;17.38;43.06;100012.34;5058573;28;1021;-49
2024/01/04 06:20:47;;;;;;;;;;;;;;;16.47;44.97;100010.34;5059389;28;1040;-51
2024/01/04 06:23:12;;;;;;;;;;;;;;;15.95;46.10;100011.91;5078957;28;1031;-58
2024/01/04 06:25:38;;;;;;;;;;;;;;;15.65;47.27;100011.63;5076423;28;1969;-53
2024/01/04 06:28:04;;;;;;;;;;;;;;;15.47;47.20;100005.16;5076054;28;868;-56
2024/01/04 06:30:29;;;;;;;;;;;;;;;16.16;46.26;100003.19;5064559;28;1083;-54
2024/01/04 06:32:55;;;;;;;;;;;;;;;17.40;43.26;99998.09;5077985;28;1106;-54
2024/01/04 06:35:20;;;;;;;;;;;;;;;16.60;44.61;99995.06;5059390;28;1345;-52
2024/01/04 06:37:46;;;;;;;;;;;;;;;16.05;46.16;99997.94;5071093;28;2584;-56
2024/01/04 06:40:11;;;;;;;;;;;;;;;15.74;47.07;99994.13;5072265;28;1010;-53
2024/01/04 06:42:37;;;;;;;;;;;;;;;15.54;47.27;100006.34;5074923;28;1571;-49
2024/01/04 06:45:04;;;;;;;;;;;;;;;16.48;45.38;100009.41;5068427;28;1890;-52
2024/01/04 06:47:29;;;;;;;;;;;;;;;17.44;42.89;99996.84;5077010;28;1123;-51
2024/01/04 06:49:55;;;;;;;;;;;;;;;16.45;44.75;99983.94;5072055;28;930;-53
2024/01/04 06:52:20;;;;;;;;;;;;;;;15.14;46.24;99854.94;5073438;28;896;-50
2024/01/04 06:54:46;;;;;;;;;;;;;;;15.73;46.73;99986.31;5064549;28;1266;-55
2024/01/04 06:57:12;;;;;;;;;;;;;;;16.12;46.19;99991.13;5077394;28;1043;-52
2024/01/04 06:59:37;;;;;;;;;;;;;;;17.42;43.25;99974.84;5077480;28;1174;-54
2024/01/04 07:02:06;;;;;;;;;;;;;;;16.71;44.26;99977.38;5077507;28;1305;-55
2024/01/04 07:04:32;;;;;;;;;;;;;;;16.12;45.67;99975.19;5077522;28;1174;-51
2024/01/04 07:06:57;;;;;;;;;;;;;;;15.85;46.58;99977.34;5077519;28;1918;-55
2024/01/04 07:09:23;;;;;;;;;;;;;;;15.63;47.13;99980.91;5077060;28;1981;-52
2024/01/04 07:11:48;;;;;;;;;;;;;;;15.72;47.15;99988.13;5077315;28;1027;-54
2024/01/04 07:14:14;;;;;;;;;;;;;;;17.18;43.71;99990.22;5077388;28;1410;-52
2024/01/04 07:16:45;;;;;;;;;;;;;;;16.94;43.77;99994.00;5076617;28;1055;-59
2024/01/04 07:19:11;;;;;;;;;;;;;;;16.19;45.89;99992.31;5067900;28;1067;-53
2024/01/04 07:21:37;;;;;;;;;;;;;;;15.82;46.74;99993.50;5061747;28;1222;-52
2024/01/04 07:24:02;;;;;;;;;;;;;;;15.65;47.29;99990.41;5077300;28;1039;-51
2024/01/04 07:26:28;;;;;;;;;;;;;;;15.52;47.37;99992.38;5077336;28;1910;-53
2024/01/04 07:28:54;;;;;;;;;;;;;;;17.04;44.32;99993.19;5070339;28;988;-57
2024/01/04 07:31:20;;;;;;;;;;;;;;;17.46;42.76;100000.19;5066304;28;2464;-52
2024/01/04 07:33:46;;;;;;;;;;;;;;;16.46;45.32;100011.34;5075634;28;1418;-51
2024/01/04 07:36:11;;;;;;;;;;;;;;;16.00;46.36;100000.94;5074183;28;1213;-51
2024/01/04 07:38:37;;;;;;;;;;;;;;;15.78;47.06;100005.34;5074159;28;1024;-50
2024/01/04 07:41:03;;;;;;;;;;;;;;;15.61;47.28;100001.41;5071718;28;1255;-53
2024/01/04 07:43:29;;;;;;;;;;;;;;;16.33;45.63;100003.56;5069635;28;1396;-52
2024/01/04 07:45:54;;;;;;;;;;;;;;;17.52;43.06;99997.00;5076270;28;1975;-58
2024/01/04 07:48:21;;;;;;;;;;;;;;;16.70;44.39;100000.44;5075762;28;1106;-52
2024/01/04 07:50:46;;;;;;;;;;;;;;;16.15;46.07;100012.09;5077299;28;1063;-53
2024/01/04 07:53:12;;;;;;;;;;;;;;;15.84;46.43;100011.94;5066054;28;1092;-57
2024/01/04 07:55:38;;;;;;;;;;;;;;;15.61;47.04;100006.72;5063748;28;990;-48
2024/01/04 07:58:03;;;;;;;;;;;;;;;16.99;44.25;100009.53;5063216;28;1385;-51
2024/01/04 08:00:29;;;;;;;;;;;;;;;17.32;43.22;100006.72;5072046;28;1121;-49
2024/01/04 08:02:55;;;;;;;;;;;;;;;16.48;45.24;100022.69;5061218;28;1106;-52
2024/01/04 08:05:20;;;;;;;;;;;;;;;16.07;46.02;100022.50;5068794;28;1987;-53
2024/01/04 08:07:46;;;;;;;;;;;;;;;15.80;46.74;100027.25;5071150;28;1090;-50
2024/01/04 08:10:12;;;;;;;;;;;;;;;15.55;47.37;100015.97;5063616;28;1389;-58
2024/01/04 08:12:41;;;;;;;;;;;;;;;16.79;44.56;100029.84;5056568;28;1115;-50
2024/01/04 08:15:08;;;;;;;;;;;;;;;17.66;42.49;100027.69;5061479;28;1086;-53
2024/01/04 08:17:34;;;;;;;;;;;;;;;16.59;44.84;100021.75;5069094;28;942;-55
2024/01/04 08:20:00;;;;;;;;;;;;;;;16.13;46.07;100014.88;5075697;28;992;-58
2024/01/04 08:22:26;;;;;;;;;;;;;;;15.86;46.48;100008.22;5076229;28;1090;-52
2024/01/04 08:24:51;;;;;;;;;;;;;;;15.63;47.28;100010.09;5075883;28;1913;-55
2024/01/04 08:27:19;;;;;;;;;;;;;;;16.10;46.20;100007.16;5070083;28;1317;-54
2024/01/04 08:29:49;;;;;;;;;;;;;;;17.40;43.40;100006.91;5075139;28;1064;-55
2024/01/04 08:32:16;;;;;;;;;;;;;;;16.64;44.53;100000.97;5074343;28;1289;-58
2024/01/04 08:34:41;;;;;;;;;;;;;;;16.03;46.20;100001.53;5075870;28;1309;-51
2024/01/04 08:37:07;;;;;;;;;;;;;;;15.82;46.57;100006.75;5070593;28;1206;-49
2024/01/04 08:39:32;;;;;;;;;;;;;;;15.59;47.00;100000.69;5076007;28;1344;-49
2024/01/04 08:41:58;;;;;;;;;;;;;;;16.22;45.99;100001.81;5076116;28;1213;-52
2024/01/04 08:44:23;;;;;;;;;;;;;;;17.48;43.15;99988.44;5074339;28;1377;-50
2024/01/04 08:46:50;;;;;;;;;;;;;;;16.72;44.64;99985.22;5072623;28;1907;-50
2024/01/04 08:49:16;;;;;;;;;;;;;;;16.06;45.99;99978.38;5075796;28;1122;-50
2024/01/04 08:51:41;;;;;;;;;;;;;;;15.88;46.37;99974.44;5071973;28;1348;-53
2024/01/04 08:54:07;;;;;;;;;;;;;;;15.55;47.04;99970.91;5075665;28;1048;-52
2024/01/04 08:56:33;;;;;;;;;;;;;;;16.36;45.72;99963.50;5075937;28;1095;-53
2024/01/04 08:59:00;;;;;;;;;;;;;;;17.50;43.03;99961.72;5065938;28;996;-48
2024/01/04 09:01:25;;;;;;;;;;;;;;;16.53;45.02;99954.94;5056080;28;1074;-50
2024/01/04 09:03:51;;;;;;;;;;;;;;;16.03;46.33;99959.06;5065901;28;1214;-53
2024/01/04 09:06:16;;;;;;;;;;;;;;;15.80;46.70;99953.00;5073193;28;1972;-49
2024/01/04 09:08:42;;;;;;;;;;;;;;;15.60;47.39;99952.84;5075995;28;1118;-50
2024/01/04 09:11:08;;;;;;;;;;;;;;;16.27;45.94;99939.41;5071782;28;1138;-52
2024/01/04 09:13:35;;;;;;;;;;;;;;;17.40;43.29;99942.25;5066295;28;1067;-48
2024/01/04 09:16:00;;;;;;;;;;;;;;;16.38;45.36;99935.84;5061453;28;1122;-52
2024/01/04 09:18:26;;;;;;;;;;;;;;;15.95;46.52;99931.50;5072541;28;1328;-53
2024/01/04 09:20:51;;;;;;;;;;;;;;;15.64;46.96;99933.06;5066739;28;995;-55
2024/01/04 09:23:17;;;;;;;;;;;;;;;15.54;47.38;99925.03;5074493;28;1127;-54
2024/01/04 09:25:43;;;;;;;;;;;;;;;16.65;45.24;99915.00;5074953;28;1978;-51
2024/01/04 09:28:08;;;;;;;;;;;;;;;17.23;43.54;99907.41;5073319;28;1023;-54
2024/01/04 09:30:34;;;;;;;;;;;;;;;16.34;45.43;99907.91;5074569;28;1059;-53
2024/01/04 09:32:59;;;;;;;;;;;;;;;15.94;46.29;99901.47;5069935;28;1516;-55
2024/01/04 09:35:25;;;;;;;;;;;;;;;15.67;47.26;99903.66;5068470;28;1496;-53
2024/01/04 09:37:50;;;;;;;;;;;;;;;15.55;47.41;99907.28;5065638;28;920;-54
2024/01/04 09:40:16;;;;;;;;;;;;;;;15.84;47.08;99903.22;5077184;28;1066;-49
2024/01/04 09:42:42;;;;;;;;;;;;;;;17.20;43.96;99903.19;5072983;28;1129;-54
2024/01/04 09:45:11;;;;;;;;;;;;;;;16.84;44.43;99894.81;5057176;28;1898;-57
2024/01/04 09:47:38;;;;;;;;;;;;;;;16.18;45.80;99888.94;5045106;28;1432;-52
2024/01/04 09:50:04;;;;;;;;;;;;;;;15.80;47.10;99884.03;5061722;28;1392;-50
2024/01/04 09:52:29;;;;;;;;;;;;;;;15.60;47.17;99872.47;5079030;28;1083;-52
2024/01/04 09:54:55;;;;;;;;;;;;;;;16.38;45.88;99869.47;5079236;28;1502;-54
2024/01/04 09:57:21;;;;;;;;;;;;;;;17.50;43.19;99868.63;5070612;28;1070;-55
2024/01/04 09:59:47;;;;;;;;;;;;;;;16.53;44.89;99856.69;5060361;28;1021;-52
2024/01/04 10:02:13;;;;;;;;;;;;;;;16.03;46.24;99846.84;5079215;28;1075;-52
2024/01/04 10:04:39;;;;;;;;;;;;;;;15.76;47.17;99842.88;5058314;28;1067;-52
2024/01/04 10:07:04;;;;;;;;;;;;;;;15.59;47.31;99836.31;5061466;28;1914;-53
2024/01/04 10:09:35;;;;;;;;;;;;;;;16.89;44.83;99842.97;5061056;28;1060;-58
2024/01/04 10:12:02;;;;;;;;;;;;;;;17.27;43.38;99830.88;5070342;28;1047;-53
2024/01/04 10:14:28;;;;;;;;;;;;;;;16.39;45.38;99834.03;5068742;28;1370;-53
2024/01/04 10:16:56;;;;;;;;;;;;;;;15.97;46.37;99831.38;5073724;28;1195;-52
2024/01/04 10:19:22;;;;;;;;;;;;;;;15.73;47.08;99829.88;5058988;28;1087;-54
2024/01/04 10:21:48;;;;;;;;;;;;;;;15.59;47.25;99807.16;5073909;28;1178;-55
2024/01/04 10:24:15;;;;;;;;;;;;;;;15.41;48.11;99805.91;5060339;28;950;-49
2024/01/04 10:26:44;;;;;;;;;;;;;;;16.73;44.78;99800.16;5071243;28;1909;-47
2024/01/04 10:29:10;;;;;;;;;;;;;;;17.52;42.95;99784.25;5063603;28;1177;-54
2024/01/04 10:31:36;;;;;;;;;;;;;;;16.47;45.31;99788.22;5059076;28;1103;-54
2024/01/04 10:34:01;;;;;;;;;;;;;;;15.95;46.38;99780.31;5064340;28;1076;-52
2024/01/04 10:36:32;;;;;;;;;;;;;;;15.78;46.82;99769.34;5074952;28;1322;-50
2024/01/04 10:38:58;;;;;;;;;;;;;;;15.54;47.68;99763.34;5069781;28;1468;-53
2024/01/04 10:41:28;;;;;;;;;;;;;;;16.45;45.79;99752.16;5068349;28;1357;-53
2024/01/04 10:44:05;;;;;;;;;;;;;;;17.53;43.23;99753.19;5074144;28;1083;-57
2024/01/04 10:46:31;;;;;;;;;;;;;;;16.50;45.48;99736.66;5077830;28;1906;-55
2024/01/04 10:48:57;;;;;;;;;;;;;;;16.02;46.26;99731.06;5078011;28;1142;-52
2024/01/04 10:51:22;;;;;;;;;;;;;;;15.74;46.94;99726.31;5077070;28;1078;-54
2024/01/04 10:53:48;;;;;;;;;;;;;;;15.56;47.82;99718.13;5060355;28;1309;-56
2024/01/04 10:56:14;;;;;;;;;;;;;;;16.08;46.43;99713.78;5078789;28;1074;-57
2024/01/04 10:58:40;;;;;;;;;;;;;;;17.37;43.55;99709.41;5060305;28;1278;-59
2024/01/04 11:01:06;;;;;;;;;;;;;;;16.58;45.30;99704.94;5059929;28;1340;-58
2024/01/04 11:03:31;;;;;;;;;;;;;;;16.05;46.29;99698.97;5061920;28;1172;-58
2024/01/04 11:05:58;;;;;;;;;;;;;;;15.73;47.19;99684.03;5076710;28;1976;-59
2024/01/04 11:08:25;;;;;;;;;;;;;;;15.62;47.38;99683.13;5077631;28;1269;-58
2024/01/04 11:10:51;;;;;;;;;;;;;;;15.44;48.00;99677.63;5059623;28;1369;-58
2024/01/04 11:13:16;;;;;;;;;;;;;;;16.22;46.42;99675.41;5058944;28;1408;-58
2024/01/04 11:15:42;;;;;;;;;;;;;;;17.40;43.61;99666.59;5077585;28;1090;-58
2024/01/04 11:18:18;;;;;;;;;;;;;;;16.67;45.02;99657.28;5071895;28;1275;-57
2024/01/04 11:20:58;;;;;;;;;;;;;;;16.06;46.36;99654.72;5067294;28;1040;-56
2024/01/04 11:23:23;;;;;;;;;;;;;;;15.75;47.26;99644.94;5075117;28;1067;-62
2024/01/04 11:25:58;;;;;;;;;;;;;;;15.59;47.49;99630.38;5077392;28;1965;-60
2024/01/04 11:28:24;;;;;;;;;;;;;;;16.15;46.76;99628.19;5076954;28;1282;-56
2024/01/04 11:30:52;;;;;;;;;;;;;;;17.36;43.67;99618.22;5055909;28;1486;-60
2024/01/04 11:33:19;;;;;;;;;;;;;;;16.50;45.13;99612.72;5075112;28;1330;-58
2024/01/04 11:35:46;;;;;;;;;;;;;;;15.93;47.01;99605.38;5062894;28;1470;-59
2024/01/04 11:38:14;;;;;;;;;;;;;;;15.74;47.07;99599.03;5075197;28;1638;-57
2024/01/04 11:40:40;;;;;;;;;;;;;;;15.54;47.96;99599.00;5077116;28;1218;-58
2024/01/04 11:43:16;;;;;;;;;;;;;;;15.44;48.13;99590.16;5043180;28;1425;-58
2024/01/04 11:45:44;;;;;;;;;;;;;;;16.50;45.83;99590.63;5076766;28;1967;-57
2024/01/04 11:48:10;;;;;;;;;;;;;;;17.35;43.70;99589.13;5071468;28;1211;-57
2024/01/04 11:50:35;;;;;;;;;;;;;;;16.37;45.75;99578.50;5052617;28;1155;-57
2024/01/04 11:53:04;;;;;;;;;;;;;;;15.93;46.77;99570.06;5073513;28;1342;-58
2024/01/04 11:55:30;;;;;;;;;;;;;;;15.72;47.51;99571.81;5070323;28;1333;-58
2024/01/04 11:58:09;;;;;;;;;;;;;;;15.53;48.05;99576.09;5076536;28;1051;-63
2024/01/04 12:00:35;;;;;;;;;;;;;;;15.85;47.47;99553.00;5075324;28;1087;-58
2024/01/04 12:03:01;;;;;;;;;;;;;;;17.17;44.20;99554.47;5075820;28;1091;-58
2024/01/04 12:05:27;;;;;;;;;;;;;;;16.62;45.25;99551.50;5068784;28;1909;-60
2024/01/04 12:07:54;;;;;;;;;;;;;;;16.06;46.72;99546.78;5075456;28;1380;-56
2024/01/04 12:10:20;;;;;;;;;;;;;;;15.78;47.23;99558.00;5073228;28;1303;-57
2024/01/04 12:12:48;;;;;;;;;;;;;;;15.56;47.96;99561.75;5064672;28;1434;-54
2024/01/04 12:15:14;;;;;;;;;;;;;;;16.18;46.54;99559.91;5063955;28;1341;-58
2024/01/04 12:17:39;;;;;;;;;;;;;;;17.36;43.85;99565.06;5051117;28;1213;-58
2024/01/04 12:20:09;;;;;;;;;;;;;;;16.52;45.66;99570.94;5072900;28;1047;-60
2024/01/04 12:22:38;;;;;;;;;;;;;;;16.06;46.47;99570.66;5074997;28;1091;-60
2024/01/04 12:25:04;;;;;;;;;;;;;;;15.71;47.60;99564.84;5074997;28;1984;-58
2024/01/04 12:27:32;;;;;;;;;;;;;;;15.54;48.20;99558.38;5075896;28;1222;-57
2024/01/04 12:29:58;;;;;;;;;;;;;;;16.18;46.81;99573.19;5072016;28;1119;-57
2024/01/04 12:32:23;;;;;;;;;;;;;;;17.35;43.82;99575.84;5073420;28;1593;-57
2024/01/04 12:34:49;;;;;;;;;;;;;;;16.48;45.38;99574.84;5075565;28;1301;-59
2024/01/04 12:37:16;;;;;;;;;;;;;;;16.00;46.91;99564.09;5076791;28;1160;-58
2024/01/04 12:39:42;;;;;;;;;;;;;;;15.73;47.62;99557.59;5074420;28;1129;-59
2024/01/04 12:42:12;;;;;;;;;;;;;;;15.54;47.79;99545.97;5075823;28;1060;-58
2024/01/04 12:44:37;;;;;;;;;;;;;;;16.01;47.13;99536.59;5075589;28;1087;-58
2024/01/04 12:47:04;;;;;;;;;;;;;;;17.32;44.10;99550.38;5066162;28;1913;-60
2024/01/04 12:49:30;;;;;;;;;;;;;;;16.67;45.25;99556.38;5071138;28;1229;-58